sensor_id;sensor_type;location;lat;lon;timestamp;pressure;altitude;pressure_sealevel;temperature;humidity
26807;BME280;14380;49.910;6.792;2023-02-23T00:00:30;98404.75;;;9.42;100.00
26807;BME280;14380;49.910;6.792;2023-02-23T00:02:59;98404.13;;;9.52;100.00
26807;BME280;14380;49.910;6.792;2023-02-23T00:05:28;98403.91;;;9.41;100.00
26807;BME280;14380;49.910;6.792;2023-02-23T00:07:55;98398.72;;;9.40;100.00
26807;BME280;14380;49.910;6.792;2023-02-23T00:10:25;98404.31;;;9.49;100.00
26807;BME280;14380;49.910;6.792;2023-02-23T00:12:55;98404.50;;;9.46;100.00
26807;BME280;14380;49.910;6.792;2023-02-23T00:15:22;98398.19;;;9.49;100.00
26807;BME280;14380;49.910;6.792;2023-02-23T00:17:51;98403.38;;;9.50;100.00
26807;BME280;14380;49.910;6.792;2023-02-23T00:20:18;98397.94;;;9.37;100.00
26807;BME280;14380;49.910;6.792;2023-02-23T00:22:51;98396.66;;;9.45;100.00
26807;BME280;14380;49.910;6.792;2023-02-23T00:25:18;98397.53;;;9.45;100.00
26807;BME280;14380;49.910;6.792;2023-02-23T00:27:46;98402.38;;;9.53;100.00
26807;BME280;14380;49.910;6.792;2023-02-23T00:30:14;98399.31;;;9.45;100.00
26807;BME280;14380;49.910;6.792;2023-02-23T00:32:42;98399.75;;;9.37;100.00
26807;BME280;14380;49.910;6.792;2023-02-23T00:35:09;98396.81;;;9.58;100.00
26807;BME280;14380;49.910;6.792;2023-02-23T00:37:42;98399.44;;;9.27;100.00
26807;BME280;14380;49.910;6.792;2023-02-23T00:40:11;98393.28;;;9.43;100.00
26807;BME280;14380;49.910;6.792;2023-02-23T00:42:41;98393.41;;;9.56;100.00
26807;BME280;14380;49.910;6.792;2023-02-23T00:45:10;98389.69;;;9.44;100.00
26807;BME280;14380;49.910;6.792;2023-02-23T00:47:38;98388.19;;;9.40;100.00
26807;BME280;14380;49.910;6.792;2023-02-23T00:50:07;98393.44;;;9.40;100.00
26807;BME280;14380;49.910;6.792;2023-02-23T00:52:35;98390.03;;;9.53;100.00
26807;BME280;14380;49.910;6.792;2023-02-23T00:55:04;98389.25;;;9.51;100.00
26807;BME280;14380;49.910;6.792;2023-02-23T00:57:30;98381.94;;;9.57;100.00
26807;BME280;14380;49.910;6.792;2023-02-23T00:59:57;98398.66;;;9.41;100.00
26807;BME280;14380;49.910;6.792;2023-02-23T01:02:26;98391.09;;;9.35;100.00
26807;BME280;14380;49.910;6.792;2023-02-23T01:04:54;98387.25;;;9.41;100.00
26807;BME280;14380;49.910;6.792;2023-02-23T01:07:21;98390.31;;;9.33;100.00
26807;BME280;14380;49.910;6.792;2023-02-23T01:09:50;98386.75;;;9.34;100.00
26807;BME280;14380;49.910;6.792;2023-02-23T01:12:17;98386.56;;;9.37;100.00
26807;BME280;14380;49.910;6.792;2023-02-23T01:14:44;98389.34;;;9.50;100.00
26807;BME280;14380;49.910;6.792;2023-02-23T01:17:11;98390.88;;;9.54;100.00
26807;BME280;14380;49.910;6.792;2023-02-23T01:19:40;98382.13;;;9.53;100.00
26807;BME280;14380;49.910;6.792;2023-02-23T01:22:06;98381.88;;;9.58;100.00
26807;BME280;14380;49.910;6.792;2023-02-23T01:24:33;98387.97;;;9.59;100.00
26807;BME280;14380;49.910;6.792;2023-02-23T01:27:02;98394.72;;;9.79;100.00
26807;BME280;14380;49.910;6.792;2023-02-23T01:29:29;98387.44;;;9.68;100.00
26807;BME280;14380;49.910;6.792;2023-02-23T01:31:56;98386.81;;;9.79;100.00
26807;BME280;14380;49.910;6.792;2023-02-23T01:34:23;98389.56;;;9.77;100.00
26807;BME280;14380;49.910;6.792;2023-02-23T01:36:51;98389.44;;;9.64;100.00
26807;BME280;14380;49.910;6.792;2023-02-23T01:39:19;98383.81;;;9.71;100.00
26807;BME280;14380;49.910;6.792;2023-02-23T01:41:46;98386.63;;;9.67;100.00
26807;BME280;14380;49.910;6.792;2023-02-23T01:47:30;98386.75;;;9.80;100.00
26807;BME280;14380;49.910;6.792;2023-02-23T01:49:56;98381.59;;;9.63;100.00
26807;BME280;14380;49.910;6.792;2023-02-23T01:52:25;98377.91;;;9.81;100.00
26807;BME280;14380;49.910;6.792;2023-02-23T01:54:53;98378.84;;;9.80;100.00
26807;BME280;14380;49.910;6.792;2023-02-23T01:57:22;98391.88;;;9.67;100.00
26807;BME280;14380;49.910;6.792;2023-02-23T01:59:51;98375.50;;;9.77;100.00
26807;BME280;14380;49.910;6.792;2023-02-23T02:02:21;98378.25;;;9.75;100.00
26807;BME280;14380;49.910;6.792;2023-02-23T02:04:49;98382.66;;;9.75;100.00
26807;BME280;14380;49.910;6.792;2023-02-23T02:07:18;98377.50;;;9.73;100.00
26807;BME280;14380;49.910;6.792;2023-02-23T02:09:50;98377.25;;;9.62;100.00
26807;BME280;14380;49.910;6.792;2023-02-23T02:12:51;98367.41;;;9.65;100.00
26807;BME280;14380;49.910;6.792;2023-02-23T02:15:21;98372.25;;;9.57;100.00
26807;BME280;14380;49.910;6.792;2023-02-23T02:17:58;98377.44;;;9.59;100.00
26807;BME280;14380;49.910;6.792;2023-02-23T02:20:56;98367.94;;;9.56;100.00
26807;BME280;14380;49.910;6.792;2023-02-23T02:24:13;98366.88;;;9.59;100.00
26807;BME280;14380;49.910;6.792;2023-02-23T02:26:49;98373.91;;;9.74;100.00
26807;BME280;14380;49.910;6.792;2023-02-23T02:38:33;98356.41;;;9.73;100.00
26807;BME280;14380;49.910;6.792;2023-02-23T02:41:06;98353.88;;;9.56;100.00
26807;BME280;14380;49.910;6.792;2023-02-23T02:43:46;98360.53;;;9.47;100.00
26807;BME280;14380;49.910;6.792;2023-02-23T02:46:17;98354.81;;;9.55;100.00
26807;BME280;14380;49.910;6.792;2023-02-23T02:48:48;98356.38;;;9.43;100.00
26807;BME280;14380;49.910;6.792;2023-02-23T02:51:22;98355.69;;;9.55;100.00
26807;BME280;14380;49.910;6.792;2023-02-23T02:53:57;98355.69;;;9.55;100.00
26807;BME280;14380;49.910;6.792;2023-02-23T02:56:32;98355.00;;;9.51;100.00
26807;BME280;14380;49.910;6.792;2023-02-23T02:59:05;98363.59;;;9.55;100.00
26807;BME280;14380;49.910;6.792;2023-02-23T03:01:46;98356.47;;;9.72;100.00
26807;BME280;14380;49.910;6.792;2023-02-23T03:04:30;98358.16;;;9.58;100.00
26807;BME280;14380;49.910;6.792;2023-02-23T03:07:20;98347.56;;;9.74;100.00
26807;BME280;14380;49.910;6.792;2023-02-23T03:10:13;98353.72;;;9.59;100.00
26807;BME280;14380;49.910;6.792;2023-02-23T03:13:06;98353.72;;;9.59;100.00
26807;BME280;14380;49.910;6.792;2023-02-23T03:15:59;98355.75;;;9.53;100.00
26807;BME280;14380;49.910;6.792;2023-02-23T03:19:05;98358.47;;;9.68;100.00
26807;BME280;14380;49.910;6.792;2023-02-23T03:21:55;98359.22;;;9.70;100.00
26807;BME280;14380;49.910;6.792;2023-02-23T03:24:45;98352.41;;;9.66;100.00
26807;BME280;14380;49.910;6.792;2023-02-23T03:27:43;98360.16;;;9.69;100.00
26807;BME280;14380;49.910;6.792;2023-02-23T03:30:33;98361.53;;;9.60;100.00
26807;BME280;14380;49.910;6.792;2023-02-23T03:33:28;98357.22;;;9.74;100.00
26807;BME280;14380;49.910;6.792;2023-02-23T03:36:18;98356.88;;;9.80;100.00
26807;BME280;14380;49.910;6.792;2023-02-23T03:39:09;98358.75;;;9.78;100.00
26807;BME280;14380;49.910;6.792;2023-02-23T03:41:57;98357.81;;;9.79;100.00
26807;BME280;14380;49.910;6.792;2023-02-23T03:44:46;98364.44;;;9.86;100.00
26807;BME280;14380;49.910;6.792;2023-02-23T03:47:35;98365.34;;;9.71;100.00
26807;BME280;14380;49.910;6.792;2023-02-23T03:50:23;98359.41;;;9.67;100.00
26807;BME280;14380;49.910;6.792;2023-02-23T03:53:11;98365.25;;;9.72;100.00
26807;BME280;14380;49.910;6.792;2023-02-23T03:55:58;98363.28;;;9.76;100.00
26807;BME280;14380;49.910;6.792;2023-02-23T03:58:47;98372.88;;;9.77;100.00
26807;BME280;14380;49.910;6.792;2023-02-23T04:01:37;98370.00;;;9.96;100.00
26807;BME280;14380;49.910;6.792;2023-02-23T04:04:22;98376.19;;;9.80;100.00
26807;BME280;14380;49.910;6.792;2023-02-23T04:07:09;98371.88;;;9.79;100.00
26807;BME280;14380;49.910;6.792;2023-02-23T04:09:56;98386.22;;;9.90;100.00
26807;BME280;14380;49.910;6.792;2023-02-23T04:12:45;98378.56;;;9.85;100.00
26807;BME280;14380;49.910;6.792;2023-02-23T04:15:36;98379.31;;;9.87;100.00
26807;BME280;14380;49.910;6.792;2023-02-23T04:18:04;98380.03;;;9.75;100.00
26807;BME280;14380;49.910;6.792;2023-02-23T04:20:31;98385.22;;;9.76;100.00
26807;BME280;14380;49.910;6.792;2023-02-23T04:22:57;98385.47;;;9.88;100.00
26807;BME280;14380;49.910;6.792;2023-02-23T04:25:24;98388.69;;;9.77;100.00
26807;BME280;14380;49.910;6.792;2023-02-23T04:27:51;98392.69;;;9.84;100.00
26807;BME280;14380;49.910;6.792;2023-02-23T04:30:17;98392.28;;;9.76;100.00
26807;BME280;14380;49.910;6.792;2023-02-23T04:32:44;98393.38;;;9.72;100.00
26807;BME280;14380;49.910;6.792;2023-02-23T04:35:12;98394.72;;;9.79;100.00
26807;BME280;14380;49.910;6.792;2023-02-23T04:37:39;98391.97;;;9.66;100.00
26807;BME280;14380;49.910;6.792;2023-02-23T04:40:07;98392.13;;;9.63;100.00
26807;BME280;14380;49.910;6.792;2023-02-23T04:42:33;98388.97;;;9.72;100.00
26807;BME280;14380;49.910;6.792;2023-02-23T04:45:00;98391.19;;;9.64;100.00
26807;BME280;14380;49.910;6.792;2023-02-23T04:47:27;98396.81;;;9.58;100.00
26807;BME280;14380;49.910;6.792;2023-02-23T04:49:53;98391.38;;;9.61;100.00
26807;BME280;14380;49.910;6.792;2023-02-23T04:52:21;98396.28;;;9.67;100.00
26807;BME280;14380;49.910;6.792;2023-02-23T04:54:48;98399.09;;;9.64;100.00
26807;BME280;14380;49.910;6.792;2023-02-23T04:57:15;98390.25;;;9.65;100.00
26807;BME280;14380;49.910;6.792;2023-02-23T04:59:41;98400.19;;;9.76;100.00
26807;BME280;14380;49.910;6.792;2023-02-23T05:02:08;98403.72;;;9.60;100.00
26807;BME280;14380;49.910;6.792;2023-02-23T05:04:34;98397.94;;;9.53;100.00
26807;BME280;14380;49.910;6.792;2023-02-23T05:07:01;98394.94;;;9.60;100.00
26807;BME280;14380;49.910;6.792;2023-02-23T05:09:30;98399.81;;;9.67;100.00
26807;BME280;14380;49.910;6.792;2023-02-23T05:11:57;98400.66;;;9.52;100.00
26807;BME280;14380;49.910;6.792;2023-02-23T05:14:24;98403.03;;;9.57;100.00
26807;BME280;14380;49.910;6.792;2023-02-23T05:16:51;98406.44;;;9.43;100.00
26807;BME280;14380;49.910;6.792;2023-02-23T05:19:18;98410.75;;;9.60;100.00
26807;BME280;14380;49.910;6.792;2023-02-23T05:21:44;98404.75;;;9.42;100.00
26807;BME280;14380;49.910;6.792;2023-02-23T05:24:11;98401.53;;;9.36;100.00
26807;BME280;14380;49.910;6.792;2023-02-23T05:26:39;98413.84;;;9.36;100.00
26807;BME280;14380;49.910;6.792;2023-02-23T05:29:05;98404.31;;;9.33;100.00
26807;BME280;14380;49.910;6.792;2023-02-23T05:31:32;98401.28;;;9.41;100.00
26807;BME280;14380;49.910;6.792;2023-02-23T05:33:59;98410.97;;;9.25;100.00
26807;BME280;14380;49.910;6.792;2023-02-23T05:36:26;98417.66;;;9.30;100.00
26807;BME280;14380;49.910;6.792;2023-02-23T05:38:53;98415.47;;;9.22;100.00
26807;BME280;14380;49.910;6.792;2023-02-23T05:41:21;98420.50;;;9.27;100.00
26807;BME280;14380;49.910;6.792;2023-02-23T05:43:50;98419.03;;;9.21;100.00
26807;BME280;14380;49.910;6.792;2023-02-23T05:46:20;98413.69;;;9.23;100.00
26807;BME280;14380;49.910;6.792;2023-02-23T05:48:47;98415.56;;;9.21;100.00
26807;BME280;14380;49.910;6.792;2023-02-23T05:51:15;98421.25;;;9.13;100.00
26807;BME280;14380;49.910;6.792;2023-02-23T05:53:42;98424.91;;;9.11;100.00
26807;BME280;14380;49.910;6.792;2023-02-23T05:56:12;98417.22;;;9.06;100.00
26807;BME280;14380;49.910;6.792;2023-02-23T05:58:42;98418.88;;;9.08;100.00
26807;BME280;14380;49.910;6.792;2023-02-23T06:01:10;98414.63;;;9.22;100.00
26807;BME280;14380;49.910;6.792;2023-02-23T06:03:37;98420.91;;;9.03;100.00
26807;BME280;14380;49.910;6.792;2023-02-23T06:06:04;98416.31;;;9.07;100.00
26807;BME280;14380;49.910;6.792;2023-02-23T06:08:31;98417.50;;;9.17;100.00
26807;BME280;14380;49.910;6.792;2023-02-23T06:10:57;98418.53;;;9.15;100.00
26807;BME280;14380;49.910;6.792;2023-02-23T06:13:24;98426.25;;;9.02;100.00
26807;BME280;14380;49.910;6.792;2023-02-23T06:15:51;98423.53;;;9.03;100.00
26807;BME280;14380;49.910;6.792;2023-02-23T06:18:19;98417.50;;;9.17;100.00
26807;BME280;14380;49.910;6.792;2023-02-23T06:20:45;98417.66;;;9.30;100.00
26807;BME280;14380;49.910;6.792;2023-02-23T06:23:13;98423.97;;;9.28;100.00
26807;BME280;14380;49.910;6.792;2023-02-23T06:25:41;98436.88;;;9.16;100.00
26807;BME280;14380;49.910;6.792;2023-02-23T06:28:08;98437.47;;;9.05;100.00
26807;BME280;14380;49.910;6.792;2023-02-23T06:30:36;98437.56;;;9.04;100.00
26807;BME280;14380;49.910;6.792;2023-02-23T06:33:03;98440.84;;;8.91;100.00
26807;BME280;14380;49.910;6.792;2023-02-23T06:35:32;98445.78;;;8.98;100.00
26807;BME280;14380;49.910;6.792;2023-02-23T06:37:59;98445.78;;;8.98;100.00
26807;BME280;14380;49.910;6.792;2023-02-23T06:40:26;98450.13;;;8.99;100.00
26807;BME280;14380;49.910;6.792;2023-02-23T06:42:53;98448.66;;;9.09;100.00
26807;BME280;14380;49.910;6.792;2023-02-23T06:45:20;98448.00;;;9.21;100.00
26807;BME280;14380;49.910;6.792;2023-02-23T06:47:47;98444.75;;;9.00;100.00
26807;BME280;14380;49.910;6.792;2023-02-23T06:50:14;98457.44;;;9.26;100.00
26807;BME280;14380;49.910;6.792;2023-02-23T06:52:42;98453.13;;;9.25;100.00
26807;BME280;14380;49.910;6.792;2023-02-23T06:55:09;98460.91;;;9.10;100.00
26807;BME280;14380;49.910;6.792;2023-02-23T06:57:37;98467.38;;;9.04;100.00
26807;BME280;14380;49.910;6.792;2023-02-23T07:00:04;98466.09;;;9.12;100.00
26807;BME280;14380;49.910;6.792;2023-02-23T07:02:31;98467.72;;;9.14;100.00
26807;BME280;14380;49.910;6.792;2023-02-23T07:05:02;98468.81;;;9.10;100.00
26807;BME280;14380;49.910;6.792;2023-02-23T07:07:28;98474.78;;;9.14;100.00
26807;BME280;14380;49.910;6.792;2023-02-23T07:09:56;98477.75;;;9.23;100.00
26807;BME280;14380;49.910;6.792;2023-02-23T07:12:23;98478.09;;;9.33;100.00
26807;BME280;14380;49.910;6.792;2023-02-23T07:14:50;98475.22;;;9.22;100.00
26807;BME280;14380;49.910;6.792;2023-02-23T07:17:16;98481.50;;;9.19;100.00
26807;BME280;14380;49.910;6.792;2023-02-23T07:19:43;98479.38;;;9.26;100.00
26807;BME280;14380;49.910;6.792;2023-02-23T07:22:10;98488.81;;;9.30;100.00
26807;BME280;14380;49.910;6.792;2023-02-23T07:24:36;98489.94;;;9.42;100.00
26807;BME280;14380;49.910;6.792;2023-02-23T07:27:05;98493.41;;;9.43;100.00
26807;BME280;14380;49.910;6.792;2023-02-23T07:29:32;98498.25;;;9.34;100.00
26807;BME280;14380;49.910;6.792;2023-02-23T07:31:58;98495.09;;;9.44;100.00
26807;BME280;14380;49.910;6.792;2023-02-23T07:34:25;98501.81;;;9.33;100.00
26807;BME280;14380;49.910;6.792;2023-02-23T07:36:51;98507.69;;;9.38;100.00
26807;BME280;14380;49.910;6.792;2023-02-23T07:39:18;98509.16;;;9.44;100.00
26807;BME280;14380;49.910;6.792;2023-02-23T07:41:44;98508.56;;;9.55;100.00
26807;BME280;14380;49.910;6.792;2023-02-23T07:44:12;98510.09;;;9.59;100.00
26807;BME280;14380;49.910;6.792;2023-02-23T07:46:39;98509.16;;;9.60;100.00
26807;BME280;14380;49.910;6.792;2023-02-23T07:49:06;98508.63;;;9.53;100.00
26807;BME280;14380;49.910;6.792;2023-02-23T07:51:33;98510.41;;;9.69;100.00
26807;BME280;14380;49.910;6.792;2023-02-23T07:54:01;98513.31;;;9.64;100.00
26807;BME280;14380;49.910;6.792;2023-02-23T07:56:29;98509.13;;;9.76;100.00
26807;BME280;14380;49.910;6.792;2023-02-23T07:58:55;98511.44;;;9.66;100.00
26807;BME280;14380;49.910;6.792;2023-02-23T08:01:23;98509.47;;;9.70;100.00
26807;BME280;14380;49.910;6.792;2023-02-23T08:03:50;98508.28;;;9.76;100.00
26807;BME280;14380;49.910;6.792;2023-02-23T08:06:17;98511.00;;;9.74;100.00
26807;BME280;14380;49.910;6.792;2023-02-23T08:08:44;98511.94;;;9.73;100.00
26807;BME280;14380;49.910;6.792;2023-02-23T08:11:11;98510.75;;;9.79;100.00
26807;BME280;14380;49.910;6.792;2023-02-23T08:13:38;98523.34;;;9.90;100.00
26807;BME280;14380;49.910;6.792;2023-02-23T08:16:05;98524.94;;;9.92;100.00
26807;BME280;14380;49.910;6.792;2023-02-23T08:18:33;98521.47;;;9.92;100.00
26807;BME280;14380;49.910;6.792;2023-02-23T08:20:59;98525.28;;;9.86;100.00
26807;BME280;14380;49.910;6.792;2023-02-23T08:23:28;98528.53;;;9.91;100.00
26807;BME280;14380;49.910;6.792;2023-02-23T08:25:55;98533.19;;;10.02;100.00
26807;BME280;14380;49.910;6.792;2023-02-23T08:28:22;98526.09;;;10.19;100.00
26807;BME280;14380;49.910;6.792;2023-02-23T08:30:49;98526.16;;;10.17;100.00
26807;BME280;14380;49.910;6.792;2023-02-23T08:33:15;98530.44;;;10.20;100.00
26807;BME280;14380;49.910;6.792;2023-02-23T08:35:43;98523.28;;;10.22;100.00
26807;BME280;14380;49.910;6.792;2023-02-23T08:38:10;98525.03;;;9.91;100.00
26807;BME280;14380;49.910;6.792;2023-02-23T08:40:37;98532.44;;;10.31;100.00
26807;BME280;14380;49.910;6.792;2023-02-23T08:43:03;98523.00;;;10.43;100.00
26807;BME280;14380;49.910;6.792;2023-02-23T08:45:30;98521.81;;;10.48;100.00
26807;BME280;14380;49.910;6.792;2023-02-23T08:47:57;98526.16;;;10.49;100.00
26807;BME280;14380;49.910;6.792;2023-02-23T08:50:23;98516.75;;;10.60;100.00
26807;BME280;14380;49.910;6.792;2023-02-23T08:52:52;98520.97;;;10.62;100.00
26807;BME280;14380;49.910;6.792;2023-02-23T08:55:19;98527.56;;;10.55;100.00
26807;BME280;14380;49.910;6.792;2023-02-23T08:57:46;98531.25;;;10.67;100.00
26807;BME280;14380;49.910;6.792;2023-02-23T09:00:14;98531.28;;;10.81;100.00
26807;BME280;14380;49.910;6.792;2023-02-23T09:02:41;98526.59;;;10.86;100.00
26807;BME280;14380;49.910;6.792;2023-02-23T09:05:09;98535.41;;;10.56;100.00
26807;BME280;14380;49.910;6.792;2023-02-23T09:07:36;98528.44;;;10.55;100.00
26807;BME280;14380;49.910;6.792;2023-02-23T09:10:07;98525.63;;;10.73;100.00
26807;BME280;14380;49.910;6.792;2023-02-23T09:12:34;98533.81;;;10.83;100.00
26807;BME280;14380;49.910;6.792;2023-02-23T09:15:00;98535.25;;;10.89;100.00
26807;BME280;14380;49.910;6.792;2023-02-23T09:17:27;98533.66;;;11.00;100.00
26807;BME280;14380;49.910;6.792;2023-02-23T09:19:54;98533.38;;;11.20;100.00
26807;BME280;14380;49.910;6.792;2023-02-23T09:22:20;98536.59;;;11.25;100.00
26807;BME280;14380;49.910;6.792;2023-02-23T09:24:47;98530.94;;;11.31;100.00
26807;BME280;14380;49.910;6.792;2023-02-23T09:27:15;98537.44;;;11.54;100.00
26807;BME280;14380;49.910;6.792;2023-02-23T09:29:41;98539.25;;;11.39;100.00
26807;BME280;14380;49.910;6.792;2023-02-23T09:32:08;98542.06;;;11.22;100.00
26807;BME280;14380;49.910;6.792;2023-02-23T09:34:35;98552.16;;;11.00;100.00
26807;BME280;14380;49.910;6.792;2023-02-23T09:37:03;98546.38;;;11.52;100.00
26807;BME280;14380;49.910;6.792;2023-02-23T09:39:29;98552.25;;;11.13;100.00
26807;BME280;14380;49.910;6.792;2023-02-23T09:42:03;98546.94;;;11.57;100.00
26807;BME280;14380;49.910;6.792;2023-02-23T09:44:53;98555.88;;;11.83;100.00
26807;BME280;14380;49.910;6.792;2023-02-23T09:47:30;98559.66;;;11.94;100.00
26807;BME280;14380;49.910;6.792;2023-02-23T09:49:59;98563.28;;;12.20;100.00
26807;BME280;14380;49.910;6.792;2023-02-23T09:52:35;98561.94;;;12.00;100.00
26807;BME280;14380;49.910;6.792;2023-02-23T09:55:04;98558.63;;;12.24;100.00
26807;BME280;14380;49.910;6.792;2023-02-23T09:57:36;98564.25;;;11.63;100.00
26807;BME280;14380;49.910;6.792;2023-02-23T10:00:11;98568.91;;;12.01;100.00
26807;BME280;14380;49.910;6.792;2023-02-23T10:02:50;98564.59;;;12.27;100.00
26807;BME280;14380;49.910;6.792;2023-02-23T10:05:22;98569.38;;;12.35;100.00
26807;BME280;14380;49.910;6.792;2023-02-23T10:07:55;98567.63;;;12.21;100.00
26807;BME280;14380;49.910;6.792;2023-02-23T10:10:29;98568.25;;;12.52;100.00
26807;BME280;14380;49.910;6.792;2023-02-23T10:13:03;98569.06;;;12.40;100.00
26807;BME280;14380;49.910;6.792;2023-02-23T10:15:40;98575.59;;;12.07;100.00
26807;BME280;14380;49.910;6.792;2023-02-23T10:18:19;98582.91;;;12.03;100.00
26807;BME280;14380;49.910;6.792;2023-02-23T10:20:54;98583.00;;;12.01;100.00
26807;BME280;14380;49.910;6.792;2023-02-23T10:23:26;98581.03;;;11.76;100.00
26807;BME280;14380;49.910;6.792;2023-02-23T10:25:56;98582.75;;;11.63;100.00
26807;BME280;14380;49.910;6.792;2023-02-23T10:28:25;98583.31;;;11.53;100.00
26807;BME280;14380;49.910;6.792;2023-02-23T10:30:55;98584.84;;;11.57;100.00
26807;BME280;14380;49.910;6.792;2023-02-23T10:33:25;98586.06;;;11.66;100.00
26807;BME280;14380;49.910;6.792;2023-02-23T10:35:57;98590.31;;;11.54;100.00
26807;BME280;14380;49.910;6.792;2023-02-23T10:38:26;98591.22;;;11.82;100.00
26807;BME280;14380;49.910;6.792;2023-02-23T10:40:54;98596.03;;;11.90;100.00
26807;BME280;14380;49.910;6.792;2023-02-23T10:43:21;98594.34;;;11.74;100.00
26807;BME280;14380;49.910;6.792;2023-02-23T10:45:49;98595.28;;;11.88;100.00
26807;BME280;14380;49.910;6.792;2023-02-23T10:48:20;98591.13;;;11.84;100.00
26807;BME280;14380;49.910;6.792;2023-02-23T10:50:49;98593.41;;;11.61;100.00
26807;BME280;14380;49.910;6.792;2023-02-23T10:53:21;98595.38;;;11.72;100.00
26807;BME280;14380;49.910;6.792;2023-02-23T10:56:00;98594.75;;;11.54;100.00
26807;BME280;14380;49.910;6.792;2023-02-23T10:58:29;98598.59;;;11.77;100.00
26807;BME280;14380;49.910;6.792;2023-02-23T11:00:57;98598.41;;;11.80;100.00
26807;BME280;14380;49.910;6.792;2023-02-23T11:03:29;98600.91;;;11.69;100.00
26807;BME280;14380;49.910;6.792;2023-02-23T11:05:57;98598.44;;;11.66;100.00
26807;BME280;14380;49.910;6.792;2023-02-23T11:08:29;98601.63;;;11.42;100.00
26807;BME280;14380;49.910;6.792;2023-02-23T11:11:06;98602.84;;;11.22;100.00
26807;BME280;14380;49.910;6.792;2023-02-23T11:13:38;98599.00;;;11.56;100.00
26807;BME280;14380;49.910;6.792;2023-02-23T11:16:09;98600.88;;;11.40;100.00
26807;BME280;14380;49.910;6.792;2023-02-23T11:18:40;98607.19;;;11.52;100.00
26807;BME280;14380;49.910;6.792;2023-02-23T11:21:09;98600.09;;;11.81;100.00
26807;BME280;14380;49.910;6.792;2023-02-23T11:23:38;98592.97;;;11.69;100.00
26807;BME280;14380;49.910;6.792;2023-02-23T11:26:21;98600.97;;;11.67;100.00
26807;BME280;14380;49.910;6.792;2023-02-23T11:28:54;98591.41;;;11.79;100.00
26807;BME280;14380;49.910;6.792;2023-02-23T11:31:27;98595.13;;;11.77;100.00
26807;BME280;14380;49.910;6.792;2023-02-23T11:33:57;98594.69;;;11.97;100.00
26807;BME280;14380;49.910;6.792;2023-02-23T11:36:28;98581.97;;;11.75;100.00
26807;BME280;14380;49.910;6.792;2023-02-23T11:39:04;98586.97;;;11.80;100.00
26807;BME280;14380;49.910;6.792;2023-02-23T11:41:32;98590.34;;;11.96;100.00
26807;BME280;14380;49.910;6.792;2023-02-23T11:44:02;98585.34;;;12.06;100.00
26807;BME280;14380;49.910;6.792;2023-02-23T11:46:30;98584.28;;;11.94;100.00
26807;BME280;14380;49.910;6.792;2023-02-23T11:49:01;98583.28;;;11.82;100.00
26807;BME280;14380;49.910;6.792;2023-02-23T11:51:30;98577.53;;;11.75;100.00
26807;BME280;14380;49.910;6.792;2023-02-23T11:53:58;98579.00;;;12.09;100.00
26807;BME280;14380;49.910;6.792;2023-02-23T11:56:26;98567.22;;;12.00;100.00
26807;BME280;14380;49.910;6.792;2023-02-23T11:58:56;98565.56;;;11.97;100.00
26807;BME280;14380;49.910;6.792;2023-02-23T12:01:36;98553.94;;;12.14;100.00
26807;BME280;14380;49.910;6.792;2023-02-23T12:04:07;98565.78;;;11.94;100.00
26807;BME280;14380;49.910;6.792;2023-02-23T12:06:36;98562.59;;;11.89;100.00
26807;BME280;14380;49.910;6.792;2023-02-23T12:09:11;98555.09;;;12.10;100.00
26807;BME280;14380;49.910;6.792;2023-02-23T12:11:46;98553.38;;;12.37;100.00
26807;BME280;14380;49.910;6.792;2023-02-23T12:14:23;98549.13;;;12.74;100.00
26807;BME280;14380;49.910;6.792;2023-02-23T12:16:54;98548.50;;;13.09;100.00
26807;BME280;14380;49.910;6.792;2023-02-23T12:19:27;98553.50;;;13.01;100.00
26807;BME280;14380;49.910;6.792;2023-02-23T12:22:01;98562.94;;;12.52;100.00
26807;BME280;14380;49.910;6.792;2023-02-23T12:24:42;98555.59;;;12.43;100.00
26807;BME280;14380;49.910;6.792;2023-02-23T12:27:13;98556.19;;;12.20;100.00
26807;BME280;14380;49.910;6.792;2023-02-23T12:29:50;98548.03;;;12.24;100.00
26807;BME280;14380;49.910;6.792;2023-02-23T12:32:23;98553.44;;;12.62;100.00
26807;BME280;14380;49.910;6.792;2023-02-23T12:34:56;98545.34;;;12.11;100.00
26807;BME280;14380;49.910;6.792;2023-02-23T12:37:36;98540.75;;;12.93;100.00
26807;BME280;14380;49.910;6.792;2023-02-23T12:40:12;98547.06;;;12.52;100.00
26807;BME280;14380;49.910;6.792;2023-02-23T12:42:45;98549.94;;;12.22;100.00
26807;BME280;14380;49.910;6.792;2023-02-23T12:45:20;98549.06;;;12.48;100.00
26807;BME280;14380;49.910;6.792;2023-02-23T12:47:51;98550.19;;;12.98;100.00
26807;BME280;14380;49.910;6.792;2023-02-23T12:50:26;98546.50;;;13.00;100.00
26807;BME280;14380;49.910;6.792;2023-02-23T12:52:55;98543.63;;;13.29;100.00
26807;BME280;14380;49.910;6.792;2023-02-23T12:55:30;98537.88;;;13.09;100.00
26807;BME280;14380;49.910;6.792;2023-02-23T12:58:16;98533.72;;;13.57;100.00
26807;BME280;14380;49.910;6.792;2023-02-23T13:00:52;98528.59;;;13.43;99.85
26807;BME280;14380;49.910;6.792;2023-02-23T13:03:39;98525.78;;;13.57;100.00
26807;BME280;14380;49.910;6.792;2023-02-23T13:06:17;98521.66;;;13.90;100.00
26807;BME280;14380;49.910;6.792;2023-02-23T13:08:55;98531.47;;;13.77;100.00
26807;BME280;14380;49.910;6.792;2023-02-23T13:11:38;98528.75;;;13.27;100.00
26807;BME280;14380;49.910;6.792;2023-02-23T13:14:13;98525.91;;;13.56;100.00
26807;BME280;14380;49.910;6.792;2023-02-23T13:16:47;98528.75;;;13.39;100.00
26807;BME280;14380;49.910;6.792;2023-02-23T13:19:22;98534.41;;;12.96;100.00
26807;BME280;14380;49.910;6.792;2023-02-23T13:21:55;98529.13;;;12.96;100.00
26807;BME280;14380;49.910;6.792;2023-02-23T13:24:25;98535.16;;;12.98;100.00
26807;BME280;14380;49.910;6.792;2023-02-23T13:26:58;98528.16;;;13.10;100.00
26807;BME280;14380;49.910;6.792;2023-02-23T13:29:32;98521.38;;;12.80;100.00